Terminal Aerodrome Forecast
Issued by NWS Sioux Falls, SD

Home | Current Version | Previous Version | Text Only | Print | Product List | Glossary On
Versions: 1 2 3 4 5 6 7 8 9 10 11 12
000
FTUS43 KFSD 031120
TAFHON
TAF
KHON 031120Z 0312/0412 VRB03KT P6SM SCT250
     FM031300 35010KT P6SM SCT250
     FM031500 36018G25KT P6SM SCT150
     FM040100 02008KT P6SM SCT250=

USA.gov is the U.S. government's official web portal to all federal, state and local government web resources and services.